createdAt,value
2017-07-07T00:02:15.081Z,76.50
2017-07-07T00:04:41.248Z,76.50
2017-07-07T00:07:07.423Z,76.40
2017-07-07T00:09:34.416Z,76.40
2017-07-07T00:12:00.600Z,76.30
2017-07-07T00:14:26.804Z,75.80
2017-07-07T00:16:53.056Z,75.60
2017-07-07T00:19:19.241Z,75.50
2017-07-07T00:21:45.457Z,74.30
2017-07-07T00:24:11.634Z,75.20
2017-07-07T00:26:37.812Z,74.60
2017-07-07T00:29:04.042Z,73.30
2017-07-07T00:31:30.208Z,73.30
2017-07-07T00:33:57.104Z,72.80
2017-07-07T00:36:23.344Z,72.70
2017-07-07T00:38:49.517Z,73.20
2017-07-07T00:41:15.689Z,74.00
2017-07-07T00:43:41.872Z,74.00
2017-07-07T00:46:08.072Z,75.40
2017-07-07T00:48:34.979Z,77.40
2017-07-07T00:51:01.140Z,77.40
2017-07-07T00:53:27.332Z,76.70
2017-07-07T00:55:53.502Z,77.40
2017-07-07T00:58:20.421Z,78.90
2017-07-07T01:00:46.640Z,78.80
2017-07-07T01:03:12.877Z,79.40
2017-07-07T01:05:39.035Z,79.50
2017-07-07T01:08:05.960Z,79.20
2017-07-07T01:10:32.152Z,79.10
2017-07-07T01:12:58.316Z,78.50
2017-07-07T01:15:24.539Z,78.50
2017-07-07T01:17:50.733Z,79.30
2017-07-07T01:20:16.904Z,79.50
2017-07-07T01:22:43.088Z,79.20
2017-07-07T01:25:09.268Z,79.10
2017-07-07T01:27:35.424Z,79.30
2017-07-07T01:30:01.632Z,79.30
2017-07-07T01:32:27.828Z,80.10
2017-07-07T01:34:54.004Z,80.70
2017-07-07T01:37:20.224Z,81.40
2017-07-07T01:39:46.420Z,81.10
2017-07-07T01:42:13.353Z,80.50
2017-07-07T01:44:39.587Z,80.40
2017-07-07T01:47:06.519Z,79.00
2017-07-07T01:49:32.712Z,78.90
2017-07-07T01:51:58.941Z,79.50
2017-07-07T01:54:25.128Z,81.70
2017-07-07T01:56:51.404Z,82.10
2017-07-07T01:59:17.617Z,83.80
2017-07-07T02:01:43.836Z,84.70
2017-07-07T02:04:10.017Z,83.80
2017-07-07T02:06:36.188Z,83.40
2017-07-07T02:09:02.511Z,82.10
2017-07-07T02:11:28.692Z,81.70
2017-07-07T02:13:54.868Z,81.50
2017-07-07T02:16:21.085Z,82.20
2017-07-07T02:18:47.248Z,81.70
2017-07-07T02:21:13.451Z,81.90
2017-07-07T02:23:39.614Z,81.40
2017-07-07T02:26:05.839Z,82.00
2017-07-07T02:28:32.035Z,82.90
2017-07-07T02:30:58.262Z,84.10
2017-07-07T02:33:24.532Z,84.50
2017-07-07T02:35:50.703Z,85.00
2017-07-07T02:38:16.918Z,83.90
2017-07-07T02:40:43.116Z,83.50
2017-07-07T02:43:09.320Z,82.60
2017-07-07T02:45:35.496Z,82.30
2017-07-07T02:48:01.696Z,83.40
2017-07-07T02:50:27.869Z,85.50
2017-07-07T02:52:54.083Z,87.30
2017-07-07T02:55:20.252Z,89.10
2017-07-07T02:57:46.431Z,89.80
2017-07-07T03:00:12.647Z,91.00
2017-07-07T03:02:39.560Z,92.40
2017-07-07T03:05:05.809Z,92.30
2017-07-07T03:07:32.764Z,93.40
2017-07-07T03:09:59.769Z,93.40
2017-07-07T03:12:26.016Z,93.40
2017-07-07T03:14:52.259Z,93.90
2017-07-07T03:17:19.168Z,94.80
2017-07-07T03:19:45.341Z,94.80
2017-07-07T03:22:11.537Z,95.50
2017-07-07T03:24:37.751Z,95.60
2017-07-07T03:27:03.933Z,95.70
2017-07-07T03:29:30.111Z,95.90
2017-07-07T03:31:56.324Z,95.90
2017-07-07T03:34:22.530Z,96.10
2017-07-07T03:36:48.716Z,96.40
2017-07-07T03:39:14.920Z,97.70
2017-07-07T03:41:41.119Z,99.30
2017-07-07T03:44:07.301Z,99.90
2017-07-07T03:46:33.497Z,99.90
2017-07-07T03:48:59.684Z,99.90
2017-07-07T03:51:25.900Z,99.90
2017-07-07T03:53:52.081Z,99.90
2017-07-07T03:56:18.260Z,99.60
2017-07-07T03:58:44.465Z,98.50
2017-07-07T04:01:11.377Z,96.80
2017-07-07T04:03:38.036Z,96.80
2017-07-07T04:06:04.217Z,96.30
2017-07-07T04:08:30.411Z,94.50
2017-07-07T04:10:56.673Z,94.70
2017-07-07T04:13:22.885Z,94.60
2017-07-07T04:15:49.097Z,94.80
2017-07-07T04:18:15.340Z,94.60
2017-07-07T04:20:41.507Z,94.60
2017-07-07T04:23:07.701Z,94.60
2017-07-07T04:25:33.894Z,94.90
2017-07-07T04:28:00.909Z,94.30
2017-07-07T04:30:27.114Z,94.30
2017-07-07T04:32:53.291Z,94.10
2017-07-07T04:35:20.253Z,93.60
2017-07-07T04:37:46.435Z,93.60
2017-07-07T04:40:12.669Z,94.40
2017-07-07T04:42:38.863Z,94.30
2017-07-07T04:45:05.157Z,94.10
2017-07-07T04:47:31.372Z,93.80
2017-07-07T04:49:57.592Z,93.40
2017-07-07T04:52:23.753Z,93.30
2017-07-07T04:54:49.953Z,93.00
2017-07-07T04:57:16.204Z,92.70
2017-07-07T04:59:42.368Z,92.50
2017-07-07T05:02:08.572Z,92.50
2017-07-07T05:04:34.740Z,92.80
2017-07-07T05:07:00.931Z,92.80
2017-07-07T05:09:27.118Z,93.00
2017-07-07T05:11:53.442Z,92.70
2017-07-07T05:14:19.648Z,92.20
2017-07-07T05:16:45.864Z,92.40
2017-07-07T05:19:12.096Z,91.40
2017-07-07T05:21:38.277Z,91.50
2017-07-07T05:24:04.477Z,91.40
2017-07-07T05:26:30.654Z,91.10
2017-07-07T05:28:56.883Z,90.90
2017-07-07T05:31:23.053Z,90.90
2017-07-07T05:33:49.992Z,91.30
2017-07-07T05:36:17.017Z,91.50
2017-07-07T05:38:43.198Z,91.20
2017-07-07T05:41:09.358Z,91.10
2017-07-07T05:43:35.564Z,91.50
2017-07-07T05:46:01.772Z,91.30
2017-07-07T05:48:27.972Z,91.20
2017-07-07T05:50:54.204Z,90.70
2017-07-07T05:53:20.372Z,90.90
2017-07-07T05:55:46.576Z,90.60
2017-07-07T05:58:12.752Z,89.30
2017-07-07T06:00:38.979Z,89.40
2017-07-07T06:03:05.188Z,87.70
2017-07-07T06:05:31.363Z,86.50
2017-07-07T06:07:59.285Z,86.00
2017-07-07T06:10:25.524Z,85.90
2017-07-07T06:12:51.709Z,85.70
2017-07-07T06:15:17.960Z,85.70
2017-07-07T06:17:43.940Z,85.80
2017-07-07T06:20:10.654Z,84.80
2017-07-07T06:22:36.850Z,84.70
2017-07-07T06:25:03.023Z,85.10
2017-07-07T06:27:29.249Z,84.70
2017-07-07T06:29:55.472Z,83.40
2017-07-07T06:32:21.683Z,84.50
2017-07-07T06:34:47.897Z,82.90
2017-07-07T06:37:14.106Z,80.80
2017-07-07T06:39:40.356Z,82.20
2017-07-07T06:42:06.574Z,82.90
2017-07-07T06:44:32.789Z,82.90
2017-07-07T06:46:58.986Z,81.50
2017-07-07T06:49:25.200Z,81.00
2017-07-07T06:51:52.952Z,81.00
2017-07-07T06:54:19.182Z,80.90
2017-07-07T06:56:45.361Z,79.70
2017-07-07T06:59:11.540Z,78.60
2017-07-07T07:01:38.491Z,77.40
2017-07-07T07:04:05.449Z,73.70
2017-07-07T07:06:31.628Z,73.70
2017-07-07T07:08:57.803Z,73.30
2017-07-07T07:11:24.053Z,71.40
2017-07-07T07:13:50.254Z,68.90
2017-07-07T07:16:16.558Z,69.00
2017-07-07T07:18:42.740Z,69.40
2017-07-07T07:21:08.928Z,68.90
2017-07-07T07:23:35.877Z,66.90
2017-07-07T07:26:02.051Z,66.80
2017-07-07T07:28:28.241Z,66.20
2017-07-07T07:30:54.470Z,65.90
2017-07-07T07:33:21.368Z,65.50
2017-07-07T07:35:47.545Z,65.50
2017-07-07T07:38:13.762Z,65.10
2017-07-07T07:40:39.969Z,65.20
2017-07-07T07:43:06.898Z,66.80
2017-07-07T07:45:33.120Z,66.20
2017-07-07T07:47:59.326Z,65.80
2017-07-07T07:50:25.523Z,67.00
2017-07-07T07:52:51.732Z,67.50
2017-07-07T07:55:18.678Z,67.50
2017-07-07T07:57:45.636Z,66.50
2017-07-07T08:00:11.805Z,66.40
2017-07-07T08:02:37.984Z,65.40
2017-07-07T08:05:04.204Z,65.20
2017-07-07T08:07:31.125Z,64.60
2017-07-07T08:09:57.340Z,64.60
2017-07-07T08:12:23.512Z,63.60
2017-07-07T08:14:49.680Z,63.70
2017-07-07T08:17:15.881Z,63.50
2017-07-07T08:19:42.062Z,62.40
2017-07-07T08:22:08.281Z,62.00
2017-07-07T08:24:34.456Z,62.10
2017-07-07T08:27:00.623Z,62.00
2017-07-07T08:29:26.824Z,61.60
2017-07-07T08:31:53.020Z,59.20
2017-07-07T08:34:19.213Z,57.80
2017-07-07T08:36:45.404Z,56.40
2017-07-07T08:39:11.588Z,54.30
2017-07-07T08:41:38.587Z,52.10
2017-07-07T08:44:04.768Z,52.00
2017-07-07T08:46:31.716Z,53.60
2017-07-07T08:48:57.908Z,53.60
2017-07-07T08:51:24.107Z,54.80
2017-07-07T08:53:50.348Z,54.20
2017-07-07T08:56:16.553Z,52.60
2017-07-07T08:58:42.729Z,53.20
2017-07-07T09:01:08.928Z,52.70
2017-07-07T09:03:35.117Z,51.60
2017-07-07T09:06:01.368Z,51.20
2017-07-07T09:08:27.613Z,49.50
2017-07-07T09:10:53.793Z,47.80
2017-07-07T09:13:19.989Z,48.00
2017-07-07T09:15:46.168Z,47.70
2017-07-07T09:18:12.379Z,47.00
2017-07-07T09:20:38.565Z,46.00
2017-07-07T09:23:04.773Z,44.60
2017-07-07T09:25:30.973Z,44.70
2017-07-07T09:27:57.159Z,43.50
2017-07-07T09:30:24.181Z,41.40
2017-07-07T09:32:50.365Z,41.30
2017-07-07T09:35:16.546Z,39.70
2017-07-07T09:37:42.763Z,40.40
2017-07-07T09:40:08.945Z,39.80
2017-07-07T09:42:35.051Z,41.20
2017-07-07T09:45:01.264Z,40.80
2017-07-07T09:47:27.476Z,40.00
2017-07-07T09:49:53.653Z,39.80
2017-07-07T09:52:19.860Z,40.00
2017-07-07T09:54:46.781Z,38.00
2017-07-07T09:57:12.954Z,37.80
2017-07-07T09:59:39.148Z,37.80
2017-07-07T10:02:06.055Z,37.70
2017-07-07T10:04:32.297Z,37.60
2017-07-07T10:06:58.505Z,37.50
2017-07-07T10:09:24.678Z,37.90
2017-07-07T10:11:51.625Z,39.10
2017-07-07T10:14:18.541Z,38.00
2017-07-07T10:16:44.762Z,38.00
2017-07-07T10:19:10.949Z,37.80
2017-07-07T10:21:37.229Z,37.40
2017-07-07T10:24:03.375Z,36.70
2017-07-07T10:26:30.326Z,38.10
2017-07-07T10:28:57.293Z,37.50
2017-07-07T10:31:23.478Z,37.40
2017-07-07T10:33:49.668Z,38.10
2017-07-07T10:36:15.856Z,39.00
2017-07-07T10:38:42.072Z,38.60
2017-07-07T10:41:09.005Z,40.70
2017-07-07T10:43:35.218Z,40.70
2017-07-07T10:46:01.460Z,41.70
2017-07-07T10:48:27.647Z,42.70
2017-07-07T10:50:53.817Z,42.80
2017-07-07T10:53:20.796Z,42.30
2017-07-07T10:55:46.972Z,42.30
2017-07-07T10:58:13.160Z,42.70
2017-07-07T11:00:39.380Z,42.50
2017-07-07T11:03:05.572Z,43.00
2017-07-07T11:05:32.523Z,43.90
2017-07-07T11:07:59.467Z,43.90
2017-07-07T11:10:26.402Z,43.40
2017-07-07T11:12:53.344Z,43.30
2017-07-07T11:15:20.249Z,43.50
2017-07-07T11:17:46.456Z,43.50
2017-07-07T11:20:12.648Z,42.90
2017-07-07T11:22:39.640Z,43.60
2017-07-07T11:25:05.820Z,43.60
2017-07-07T11:27:32.015Z,43.20
2017-07-07T11:29:58.235Z,43.30
2017-07-07T11:32:24.412Z,41.30
2017-07-07T11:34:50.600Z,40.70
2017-07-07T11:37:16.816Z,41.00
2017-07-07T11:39:43.008Z,41.30
2017-07-07T11:42:09.175Z,41.90
2017-07-07T11:44:36.145Z,43.10
2017-07-07T11:47:03.060Z,44.30
2017-07-07T11:49:29.253Z,43.70
2017-07-07T11:51:55.469Z,43.60
2017-07-07T11:54:21.714Z,43.80
2017-07-07T11:56:47.888Z,43.60
2017-07-07T11:59:14.067Z,43.60
2017-07-07T12:01:40.285Z,43.30
2017-07-07T12:04:06.477Z,43.80
2017-07-07T12:06:33.419Z,43.80
2017-07-07T12:08:59.673Z,43.70
2017-07-07T12:11:25.874Z,44.70
2017-07-07T12:13:52.066Z,44.80
2017-07-07T12:16:18.285Z,43.70
2017-07-07T12:18:44.481Z,44.00
2017-07-07T12:21:10.706Z,44.70
2017-07-07T12:23:36.884Z,44.00
2017-07-07T12:26:03.097Z,43.80
2017-07-07T12:28:29.341Z,44.40
2017-07-07T12:30:55.517Z,44.80
2017-07-07T12:33:21.745Z,43.70
2017-07-07T12:35:47.966Z,43.90
2017-07-07T12:38:14.936Z,43.70
2017-07-07T12:40:41.126Z,43.70
2017-07-07T12:43:07.317Z,42.80
2017-07-07T12:45:33.567Z,43.30
2017-07-07T12:47:59.742Z,43.60
2017-07-07T12:50:25.978Z,44.30
2017-07-07T12:52:52.184Z,44.10
2017-07-07T12:55:18.389Z,44.50
2017-07-07T12:57:45.335Z,44.50
2017-07-07T13:00:12.352Z,45.80
2017-07-07T13:02:38.558Z,45.80
2017-07-07T13:05:04.741Z,46.60
2017-07-07T13:07:30.978Z,46.80
2017-07-07T13:09:57.229Z,47.00
2017-07-07T13:12:23.401Z,47.80
2017-07-07T13:14:49.576Z,48.20
2017-07-07T13:17:15.788Z,48.50
2017-07-07T13:19:41.976Z,49.30
2017-07-07T13:22:08.171Z,49.60
2017-07-07T13:24:34.381Z,49.30
2017-07-07T13:27:00.577Z,50.10
2017-07-07T13:29:27.545Z,50.10
2017-07-07T13:31:53.740Z,50.00
2017-07-07T13:34:19.932Z,49.80
2017-07-07T13:36:46.229Z,50.60
2017-07-07T13:39:12.453Z,49.20
2017-07-07T13:41:38.645Z,49.20
2017-07-07T13:44:04.887Z,49.70
2017-07-07T13:46:31.824Z,50.50
2017-07-07T13:48:58.061Z,50.50
2017-07-07T13:51:25.036Z,51.00
2017-07-07T13:53:51.252Z,51.00
2017-07-07T13:56:17.453Z,50.50
2017-07-07T13:58:44.394Z,51.30
2017-07-07T14:01:10.602Z,50.60
2017-07-07T14:03:36.813Z,49.80
2017-07-07T14:06:02.998Z,50.10
2017-07-07T14:08:29.253Z,50.20
2017-07-07T14:10:55.451Z,50.10
2017-07-07T14:13:21.661Z,50.10
2017-07-07T14:15:48.581Z,49.80
2017-07-07T14:18:14.782Z,49.70
2017-07-07T14:20:41.014Z,50.70
2017-07-07T14:23:07.225Z,50.80
2017-07-07T14:25:33.487Z,51.60
2017-07-07T14:27:59.681Z,51.60
2017-07-07T14:30:25.886Z,52.10
2017-07-07T14:32:52.096Z,52.30
2017-07-07T14:35:19.057Z,51.70
2017-07-07T14:37:45.316Z,51.80
2017-07-07T14:40:11.521Z,51.10
2017-07-07T14:42:37.739Z,51.30
2017-07-07T14:45:03.924Z,52.30
2017-07-07T14:47:30.094Z,51.70
2017-07-07T14:49:56.292Z,51.80
2017-07-07T14:52:22.469Z,51.90
2017-07-07T14:54:48.688Z,53.00
2017-07-07T14:57:14.892Z,52.90
2017-07-07T14:59:41.817Z,52.60
2017-07-07T15:02:08.041Z,52.60
2017-07-07T15:04:34.244Z,53.20
2017-07-07T15:07:00.428Z,52.00
2017-07-07T15:09:26.642Z,51.90
2017-07-07T15:11:53.619Z,52.30
2017-07-07T15:14:19.825Z,52.20
2017-07-07T15:16:46.013Z,52.50
2017-07-07T15:19:12.211Z,52.20
2017-07-07T15:21:38.458Z,52.30
2017-07-07T15:24:04.656Z,51.60
2017-07-07T15:26:30.827Z,51.00
2017-07-07T15:28:57.022Z,51.30
2017-07-07T15:31:23.229Z,51.10
2017-07-07T15:33:49.448Z,51.90
2017-07-07T15:36:15.631Z,52.20
2017-07-07T15:38:41.857Z,52.20
2017-07-07T15:41:08.061Z,52.80
2017-07-07T15:43:34.249Z,52.60
2017-07-07T15:46:00.454Z,53.60
2017-07-07T15:48:26.627Z,54.00
2017-07-07T15:50:52.824Z,53.20
2017-07-07T15:53:19.044Z,53.40
2017-07-07T15:55:45.212Z,54.10
2017-07-07T15:58:11.393Z,53.80
2017-07-07T16:00:38.362Z,54.40
2017-07-07T16:03:04.580Z,54.20
2017-07-07T16:05:30.756Z,54.20
2017-07-07T16:07:56.968Z,55.00
2017-07-07T16:10:23.179Z,55.40
2017-07-07T16:12:49.352Z,55.80
2017-07-07T16:15:15.658Z,55.50
2017-07-07T16:17:41.858Z,55.40
2017-07-07T16:20:08.052Z,56.10
2017-07-07T16:22:34.584Z,56.20
2017-07-07T16:25:01.510Z,56.30
2017-07-07T16:27:27.700Z,55.80
2017-07-07T16:29:53.896Z,55.70
2017-07-07T16:32:20.104Z,55.50
2017-07-07T16:34:47.020Z,56.20
2017-07-07T16:37:13.188Z,55.50
2017-07-07T16:39:40.127Z,55.50
2017-07-07T16:42:06.324Z,55.40
2017-07-07T16:44:32.516Z,55.50
2017-07-07T16:46:58.690Z,55.40
2017-07-07T16:49:24.898Z,55.10
2017-07-07T16:51:51.077Z,55.40
2017-07-07T16:54:17.252Z,56.10
2017-07-07T16:56:43.508Z,56.10
2017-07-07T16:59:10.441Z,55.70
2017-07-07T17:01:36.628Z,55.10
2017-07-07T17:04:02.841Z,55.90
2017-07-07T17:06:29.068Z,54.80
2017-07-07T17:08:55.239Z,55.10
2017-07-07T17:11:21.454Z,55.10
2017-07-07T17:13:47.646Z,54.90
2017-07-07T17:16:13.843Z,55.20
2017-07-07T17:18:40.796Z,57.50
2017-07-07T17:21:07.736Z,57.00
2017-07-07T17:23:34.680Z,57.10
2017-07-07T17:26:00.889Z,57.10
2017-07-07T17:28:27.074Z,56.80
2017-07-07T17:30:53.308Z,55.60
2017-07-07T17:33:19.504Z,54.90
2017-07-07T17:35:45.681Z,55.00
2017-07-07T17:38:11.896Z,54.80
2017-07-07T17:40:38.077Z,54.20
2017-07-07T17:43:05.001Z,54.40
2017-07-07T17:45:31.192Z,54.30
2017-07-07T17:47:57.421Z,53.20
2017-07-07T17:50:23.609Z,52.20
2017-07-07T17:52:49.792Z,52.20
2017-07-07T17:55:15.993Z,52.40
2017-07-07T17:57:42.181Z,52.50
2017-07-07T18:00:09.150Z,52.10
2017-07-07T18:02:35.349Z,52.10
2017-07-07T18:05:02.276Z,53.20
2017-07-07T18:07:28.467Z,53.20
2017-07-07T18:09:54.690Z,53.40
2017-07-07T18:12:20.946Z,53.50
2017-07-07T18:14:47.148Z,53.80
2017-07-07T18:17:13.340Z,54.10
2017-07-07T18:19:39.515Z,54.20
2017-07-07T18:22:05.696Z,54.10
2017-07-07T18:24:31.894Z,53.90
2017-07-07T18:26:58.094Z,53.60
2017-07-07T18:29:25.201Z,53.80
2017-07-07T18:31:51.387Z,54.30
2017-07-07T18:34:17.555Z,54.60
2017-07-07T18:36:43.760Z,54.70
2017-07-07T18:39:10.703Z,55.10
2017-07-07T18:41:37.631Z,55.50
2017-07-07T18:44:03.855Z,55.50
2017-07-07T18:46:30.040Z,55.70
2017-07-07T18:48:56.219Z,56.10
2017-07-07T18:51:22.419Z,56.50
2017-07-07T18:53:48.616Z,56.90
2017-07-07T18:56:14.802Z,57.10
2017-07-07T18:58:41.776Z,58.30
2017-07-07T19:01:08.066Z,57.90
2017-07-07T19:03:34.257Z,58.20
2017-07-07T19:06:00.441Z,58.70
2017-07-07T19:08:27.385Z,59.50
2017-07-07T19:10:54.296Z,60.00
2017-07-07T19:13:20.548Z,59.90
2017-07-07T19:15:47.474Z,60.80
2017-07-07T19:18:13.663Z,60.70
2017-07-07T19:20:39.883Z,61.30
2017-07-07T19:23:06.109Z,62.00
2017-07-07T19:25:32.292Z,62.20
2017-07-07T19:27:58.524Z,62.60
2017-07-07T19:30:24.694Z,63.40
2017-07-07T19:32:50.933Z,63.70
2017-07-07T19:35:17.108Z,64.30
2017-07-07T19:37:44.024Z,65.30
2017-07-07T19:40:10.224Z,65.30
2017-07-07T19:42:36.409Z,65.80
2017-07-07T19:45:03.405Z,66.60
2017-07-07T19:47:29.587Z,66.50
2017-07-07T19:49:56.514Z,67.70
2017-07-07T19:52:22.713Z,67.60
2017-07-07T19:54:48.960Z,68.00
2017-07-07T19:57:15.168Z,68.50
2017-07-07T19:59:41.337Z,69.20
2017-07-07T20:02:08.252Z,70.90
2017-07-07T20:04:34.460Z,70.90
2017-07-07T20:07:00.668Z,71.10
2017-07-07T20:09:26.854Z,71.80
2017-07-07T20:11:53.052Z,72.20
2017-07-07T20:14:19.247Z,72.40
2017-07-07T20:16:45.484Z,72.80
2017-07-07T20:19:11.706Z,73.50
2017-07-07T20:21:37.851Z,73.60
2017-07-07T20:24:04.060Z,74.20
2017-07-07T20:26:30.248Z,74.70
2017-07-07T20:28:57.188Z,75.90
2017-07-07T20:31:24.141Z,75.90
2017-07-07T20:33:51.136Z,76.50
2017-07-07T20:36:17.338Z,76.40
2017-07-07T20:38:43.520Z,77.10
2017-07-07T20:41:09.715Z,77.80
2017-07-07T20:43:36.057Z,78.20
2017-07-07T20:46:02.261Z,78.40
2017-07-07T20:48:28.440Z,79.10
2017-07-07T20:50:55.412Z,80.30
2017-07-07T20:53:21.625Z,80.30
2017-07-07T20:55:48.584Z,81.40
2017-07-07T20:58:14.801Z,81.30
2017-07-07T21:00:41.743Z,82.10
2017-07-07T21:03:07.949Z,82.00
2017-07-07T21:05:34.116Z,83.30
2017-07-07T21:08:00.384Z,83.70
2017-07-07T21:10:27.193Z,84.30
2017-07-07T21:12:53.370Z,84.90
2017-07-07T21:15:19.583Z,85.10
2017-07-07T21:17:45.801Z,87.50
2017-07-07T21:20:11.974Z,87.80
2017-07-07T21:22:38.923Z,88.10
2017-07-07T21:25:05.876Z,88.40
2017-07-07T21:27:32.171Z,88.40
2017-07-07T21:29:58.368Z,88.30
2017-07-07T21:32:24.575Z,88.80
2017-07-07T21:34:50.805Z,89.30
2017-07-07T21:37:16.988Z,89.70
2017-07-07T21:39:43.905Z,90.70
2017-07-07T21:42:10.109Z,90.70
2017-07-07T21:44:36.298Z,91.10
2017-07-07T21:47:03.247Z,92.90
2017-07-07T21:49:30.152Z,93.30
2017-07-07T21:51:56.337Z,93.30
2017-07-07T21:54:22.569Z,93.90
2017-07-07T21:56:48.797Z,93.90
2017-07-07T21:59:14.973Z,93.90
2017-07-07T22:01:41.204Z,93.90
2017-07-07T22:04:07.403Z,93.80
2017-07-07T22:06:33.580Z,93.90
2017-07-07T22:08:59.761Z,94.10
2017-07-07T22:11:25.961Z,93.80
2017-07-07T22:13:52.155Z,94.10
2017-07-07T22:16:19.071Z,94.00
2017-07-07T22:18:45.275Z,94.00
2017-07-07T22:21:11.485Z,94.10
2017-07-07T22:23:37.689Z,94.30
2017-07-07T22:26:03.868Z,94.50
2017-07-07T22:28:30.084Z,94.40
2017-07-07T22:30:56.261Z,94.60
2017-07-07T22:33:23.232Z,95.10
2017-07-07T22:35:49.408Z,95.00
2017-07-07T22:38:15.579Z,95.30
2017-07-07T22:40:41.768Z,95.50
2017-07-07T22:43:07.966Z,95.30
2017-07-07T22:45:34.160Z,95.80
2017-07-07T22:48:00.315Z,95.80
2017-07-07T22:50:26.518Z,95.70
2017-07-07T22:52:52.693Z,95.90
2017-07-07T22:55:18.920Z,95.90
2017-07-07T22:57:45.108Z,95.30
2017-07-07T23:00:11.273Z,95.60
2017-07-07T23:02:37.436Z,95.70
2017-07-07T23:05:03.652Z,95.50
2017-07-07T23:07:30.564Z,95.70
2017-07-07T23:09:56.737Z,95.70
2017-07-07T23:12:22.928Z,96.20
2017-07-07T23:14:49.844Z,96.10
2017-07-07T23:17:16.012Z,95.90
2017-07-07T23:19:42.962Z,96.30
2017-07-07T23:22:09.882Z,96.50
2017-07-07T23:24:36.420Z,96.50
2017-07-07T23:27:03.352Z,96.80
2017-07-07T23:29:29.516Z,96.50
2017-07-07T23:31:55.714Z,96.90
2017-07-07T23:34:21.882Z,97.40
2017-07-07T23:36:48.103Z,97.80
2017-07-07T23:39:14.284Z,97.90
2017-07-07T23:41:40.464Z,98.10
2017-07-07T23:44:06.649Z,97.90
2017-07-07T23:46:32.873Z,98.30
2017-07-07T23:48:59.808Z,98.20
2017-07-07T23:51:25.991Z,98.20
2017-07-07T23:53:52.229Z,98.40
2017-07-07T23:56:18.465Z,98.40
2017-07-07T23:58:44.628Z,98.40
